sensor_id;sensor_type;location;lat;lon;timestamp;pressure;altitude;pressure_sealevel;temperature;humidity
58973;BME280;44750;52.040;7.472;2023-04-21T00:04:55;100041.41;;;9.20;28.12
58973;BME280;44750;52.040;7.472;2023-04-21T00:09:55;100044.03;;;9.30;25.65
58973;BME280;44750;52.040;7.472;2023-04-21T00:14:55;100046.19;;;9.27;24.03
58973;BME280;44750;52.040;7.472;2023-04-21T00:19:56;100042.50;;;9.28;20.68
58973;BME280;44750;52.040;7.472;2023-04-21T00:24:56;100053.50;;;9.34;15.57
58973;BME280;44750;52.040;7.472;2023-04-21T00:29:56;100080.75;;;9.49;12.39
58973;BME280;44750;52.040;7.472;2023-04-21T00:34:56;100090.56;;;9.59;10.19
58973;BME280;44750;52.040;7.472;2023-04-21T00:39:57;100114.03;;;9.58;8.06
58973;BME280;44750;52.040;7.472;2023-04-21T00:44:57;100132.16;;;9.66;6.89
58973;BME280;44750;52.040;7.472;2023-04-21T00:49:58;100148.06;;;9.69;5.06
58973;BME280;44750;52.040;7.472;2023-04-21T00:54:58;100172.78;;;9.82;4.08
58973;BME280;44750;52.040;7.472;2023-04-21T00:59:59;100178.19;;;9.82;4.14
58973;BME280;44750;52.040;7.472;2023-04-21T01:04:59;100172.41;;;9.77;4.10
58973;BME280;44750;52.040;7.472;2023-04-21T01:09:59;100185.13;;;9.85;3.10
58973;BME280;44750;52.040;7.472;2023-04-21T01:14:59;100195.78;;;9.86;2.30
58973;BME280;44750;52.040;7.472;2023-04-21T01:20:00;100198.66;;;9.85;1.81
58973;BME280;44750;52.040;7.472;2023-04-21T01:25:04;100224.19;;;9.91;1.49
58973;BME280;44750;52.040;7.472;2023-04-21T01:30:05;100233.47;;;9.88;1.26
58973;BME280;44750;52.040;7.472;2023-04-21T01:35:06;100248.19;;;9.94;0.77
58973;BME280;44750;52.040;7.472;2023-04-21T01:40:07;100240.72;;;9.87;0.90
58973;BME280;44750;52.040;7.472;2023-04-21T01:45:08;100255.63;;;9.92;0.86
58973;BME280;44750;52.040;7.472;2023-04-21T01:50:08;100277.47;;;9.98;0.54
58973;BME280;44750;52.040;7.472;2023-04-21T01:55:09;100274.91;;;9.97;1.03
58973;BME280;44750;52.040;7.472;2023-04-21T02:00:09;100269.47;;;9.97;2.12
58973;BME280;44750;52.040;7.472;2023-04-21T02:05:10;100286.78;;;10.04;1.68
58973;BME280;44750;52.040;7.472;2023-04-21T02:10:12;100273.22;;;9.96;2.47
58973;BME280;44750;52.040;7.472;2023-04-21T02:15:12;100278.63;;;9.96;1.44
58973;BME280;44750;52.040;7.472;2023-04-21T02:20:12;100294.53;;;9.99;0.86
58973;BME280;44750;52.040;7.472;2023-04-21T02:25:12;100296.91;;;10.02;1.79
58973;BME280;44750;52.040;7.472;2023-04-21T02:30:13;100318.38;;;10.03;1.68
58973;BME280;44750;52.040;7.472;2023-04-21T02:35:13;100322.78;;;10.04;1.49
58973;BME280;44750;52.040;7.472;2023-04-21T02:40:13;100330.88;;;10.04;1.66
58973;BME280;44750;52.040;7.472;2023-04-21T02:45:13;100337.78;;;9.99;1.82
58973;BME280;44750;52.040;7.472;2023-04-21T02:50:14;100343.75;;;10.02;1.67
58973;BME280;44750;52.040;7.472;2023-04-21T02:55:14;100364.09;;;10.15;2.23
58973;BME280;44750;52.040;7.472;2023-04-21T03:00:14;100345.31;;;10.13;3.49
58973;BME280;44750;52.040;7.472;2023-04-21T03:05:15;100357.69;;;10.16;3.96
58973;BME280;44750;52.040;7.472;2023-04-21T03:10:15;100360.75;;;10.21;3.96
58973;BME280;44750;52.040;7.472;2023-04-21T03:15:18;100349.56;;;10.16;4.89
58973;BME280;44750;52.040;7.472;2023-04-21T03:20:18;100359.84;;;10.12;4.45
58973;BME280;44750;52.040;7.472;2023-04-21T03:25:19;100349.34;;;10.09;4.32
58973;BME280;44750;52.040;7.472;2023-04-21T03:30:20;100352.06;;;10.09;3.98
58973;BME280;44750;52.040;7.472;2023-04-21T03:35:20;100373.22;;;10.14;3.57
58973;BME280;44750;52.040;7.472;2023-04-21T03:40:21;100379.16;;;10.17;3.16
58973;BME280;44750;52.040;7.472;2023-04-21T03:45:21;100373.84;;;10.08;2.96
58973;BME280;44750;52.040;7.472;2023-04-21T03:50:21;100385.03;;;10.13;2.54
58973;BME280;44750;52.040;7.472;2023-04-21T03:55:22;100386.91;;;10.12;3.08
58973;BME280;44750;52.040;7.472;2023-04-21T04:00:22;100382.25;;;10.04;2.87
58973;BME280;44750;52.040;7.472;2023-04-21T04:05:22;100371.63;;;10.03;2.18
58973;BME280;44750;52.040;7.472;2023-04-21T04:10:23;100363.13;;;9.98;0.96
58973;BME280;44750;52.040;7.472;2023-04-21T04:15:23;100341.53;;;9.80;0.00
58973;BME280;44750;52.040;7.472;2023-04-21T04:20:23;100370.34;;;9.89;0.00
58973;BME280;44750;52.040;7.472;2023-04-21T04:25:25;100377.75;;;9.87;0.00
58973;BME280;44750;52.040;7.472;2023-04-21T04:30:25;100400.75;;;9.91;0.00
58973;BME280;44750;52.040;7.472;2023-04-21T04:35:26;100385.53;;;9.90;0.00
58973;BME280;44750;52.040;7.472;2023-04-21T04:40:26;100401.31;;;9.95;0.00
58973;BME280;44750;52.040;7.472;2023-04-21T04:45:26;100390.50;;;9.95;0.00
58973;BME280;44750;52.040;7.472;2023-04-21T04:50:28;100409.25;;;9.96;0.00
58973;BME280;44750;52.040;7.472;2023-04-21T04:55:29;100407.59;;;10.03;0.00
58973;BME280;44750;52.040;7.472;2023-04-21T05:00:29;100405.78;;;10.04;0.00
58973;BME280;44750;52.040;7.472;2023-04-21T05:05:29;100417.34;;;10.14;0.00
58973;BME280;44750;52.040;7.472;2023-04-21T05:10:30;100417.69;;;10.19;0.00
58973;BME280;44750;52.040;7.472;2023-04-21T05:15:30;100391.97;;;10.15;1.56
58973;BME280;44750;52.040;7.472;2023-04-21T05:20:30;100397.59;;;10.22;3.70
58973;BME280;44750;52.040;7.472;2023-04-21T05:25:30;100376.06;;;10.12;5.57
58973;BME280;44750;52.040;7.472;2023-04-21T05:30:30;100393.34;;;10.19;6.66
58973;BME280;44750;52.040;7.472;2023-04-21T05:35:31;100387.66;;;10.23;8.22
58973;BME280;44750;52.040;7.472;2023-04-21T05:40:31;100387.00;;;10.29;9.79
58973;BME280;44750;52.040;7.472;2023-04-21T05:45:32;100390.25;;;10.32;11.02
58973;BME280;44750;52.040;7.472;2023-04-21T05:50:32;100405.38;;;10.43;12.96
58973;BME280;44750;52.040;7.472;2023-04-21T05:55:33;100406.34;;;10.60;15.64
58973;BME280;44750;52.040;7.472;2023-04-21T06:00:34;100361.63;;;10.48;18.36
58973;BME280;44750;52.040;7.472;2023-04-21T06:05:34;100342.63;;;10.40;20.45
58973;BME280;44750;52.040;7.472;2023-04-21T06:10:34;100332.28;;;10.35;20.03
58973;BME280;44750;52.040;7.472;2023-04-21T06:15:41;100328.56;;;10.36;20.48
58973;BME280;44750;52.040;7.472;2023-04-21T06:20:41;100348.97;;;10.57;21.01
58973;BME280;44750;52.040;7.472;2023-04-21T06:25:41;100319.88;;;10.59;22.47
58973;BME280;44750;52.040;7.472;2023-04-21T06:30:45;100308.91;;;10.60;25.03
58973;BME280;44750;52.040;7.472;2023-04-21T06:35:45;100321.31;;;10.87;26.06
58973;BME280;44750;52.040;7.472;2023-04-21T06:40:45;100304.09;;;10.97;30.38
58973;BME280;44750;52.040;7.472;2023-04-21T06:45:46;100279.56;;;10.98;33.49
58973;BME280;44750;52.040;7.472;2023-04-21T06:50:46;100280.28;;;11.17;36.40
58973;BME280;44750;52.040;7.472;2023-04-21T06:55:47;100231.31;;;11.10;40.52
58973;BME280;44750;52.040;7.472;2023-04-21T07:00:47;100223.03;;;11.20;43.07
58973;BME280;44750;52.040;7.472;2023-04-21T07:05:47;100235.06;;;11.50;45.43
58973;BME280;44750;52.040;7.472;2023-04-21T07:10:47;100182.22;;;11.46;51.00
58973;BME280;44750;52.040;7.472;2023-04-21T07:15:48;100189.91;;;11.74;54.59
58973;BME280;44750;52.040;7.472;2023-04-21T07:20:48;100180.00;;;12.14;59.28
58973;BME280;44750;52.040;7.472;2023-04-21T07:25:48;100123.66;;;12.48;69.51
58973;BME280;44750;52.040;7.472;2023-04-21T07:30:48;100092.41;;;12.52;78.87
58973;BME280;44750;52.040;7.472;2023-04-21T07:35:49;100060.91;;;12.66;85.59
58973;BME280;44750;52.040;7.472;2023-04-21T07:40:49;100036.03;;;12.77;90.38
58973;BME280;44750;52.040;7.472;2023-04-21T07:45:49;99992.38;;;12.64;97.08
58973;BME280;44750;52.040;7.472;2023-04-21T07:50:50;99978.63;;;12.95;100.00
58973;BME280;44750;52.040;7.472;2023-04-21T07:55:50;99937.06;;;12.95;100.00
58973;BME280;44750;52.040;7.472;2023-04-21T08:00:50;99916.69;;;13.20;100.00
58973;BME280;44750;52.040;7.472;2023-04-21T08:05:50;99887.91;;;13.41;100.00
58973;BME280;44750;52.040;7.472;2023-04-21T08:10:51;99874.59;;;13.46;100.00
58973;BME280;44750;52.040;7.472;2023-04-21T08:15:51;99842.81;;;13.32;100.00
58973;BME280;44750;52.040;7.472;2023-04-21T08:20:52;99835.59;;;13.39;100.00
58973;BME280;44750;52.040;7.472;2023-04-21T08:25:52;99827.56;;;13.52;100.00
58973;BME280;44750;52.040;7.472;2023-04-21T08:30:52;99835.09;;;13.50;100.00
58973;BME280;44750;52.040;7.472;2023-04-21T08:35:52;99861.50;;;14.00;100.00
58973;BME280;44750;52.040;7.472;2023-04-21T08:40:54;99876.25;;;14.69;100.00
58973;BME280;44750;52.040;7.472;2023-04-21T08:45:57;99856.47;;;14.95;100.00
58973;BME280;44750;52.040;7.472;2023-04-21T08:50:58;99835.00;;;14.44;100.00
58973;BME280;44750;52.040;7.472;2023-04-21T08:55:58;99859.09;;;14.75;100.00
58973;BME280;44750;52.040;7.472;2023-04-21T09:00:59;99863.25;;;14.71;100.00
58973;BME280;44750;52.040;7.472;2023-04-21T09:06:01;99851.78;;;14.47;100.00
58973;BME280;44750;52.040;7.472;2023-04-21T09:11:01;99852.25;;;14.58;100.00
58973;BME280;44750;52.040;7.472;2023-04-21T09:16:15;99858.13;;;14.90;100.00
58973;BME280;44750;52.040;7.472;2023-04-21T09:21:18;99863.94;;;15.28;100.00
58973;BME280;44750;52.040;7.472;2023-04-21T09:26:20;99876.59;;;15.63;100.00
58973;BME280;44750;52.040;7.472;2023-04-21T09:31:23;99852.69;;;15.51;100.00
58973;BME280;44750;52.040;7.472;2023-04-21T09:36:27;99866.94;;;15.53;100.00
58973;BME280;44750;52.040;7.472;2023-04-21T09:41:30;99890.69;;;15.66;100.00
58973;BME280;44750;52.040;7.472;2023-04-21T09:46:33;99883.16;;;15.82;100.00
58973;BME280;44750;52.040;7.472;2023-04-21T09:51:33;99883.41;;;16.14;100.00
58973;BME280;44750;52.040;7.472;2023-04-21T09:56:36;99842.06;;;15.97;100.00
58973;BME280;44750;52.040;7.472;2023-04-21T10:01:39;99838.69;;;16.01;100.00
58973;BME280;44750;52.040;7.472;2023-04-21T10:06:39;99870.16;;;16.24;100.00
58973;BME280;44750;52.040;7.472;2023-04-21T10:11:40;99830.25;;;16.23;100.00
58973;BME280;44750;52.040;7.472;2023-04-21T10:16:41;99805.28;;;15.93;100.00
58973;BME280;44750;52.040;7.472;2023-04-21T10:21:41;99822.53;;;15.93;100.00
58973;BME280;44750;52.040;7.472;2023-04-21T10:26:42;99861.13;;;16.44;100.00
58973;BME280;44750;52.040;7.472;2023-04-21T10:31:50;99821.63;;;16.40;100.00
58973;BME280;44750;52.040;7.472;2023-04-21T10:42:17;99778.34;;;16.30;100.00
58973;BME280;44750;52.040;7.472;2023-04-21T10:47:28;99764.94;;;16.21;100.00
58973;BME280;44750;52.040;7.472;2023-04-21T10:52:31;99763.28;;;16.07;100.00
58973;BME280;44750;52.040;7.472;2023-04-21T10:57:33;99772.13;;;16.09;100.00
58973;BME280;44750;52.040;7.472;2023-04-21T11:02:35;99798.53;;;16.35;100.00
58973;BME280;44750;52.040;7.472;2023-04-21T11:07:35;99738.16;;;16.57;100.00
58973;BME280;44750;52.040;7.472;2023-04-21T11:12:37;99773.22;;;16.67;100.00
58973;BME280;44750;52.040;7.472;2023-04-21T11:17:38;99744.59;;;16.76;100.00
58973;BME280;44750;52.040;7.472;2023-04-21T11:22:38;99747.59;;;17.07;100.00
58973;BME280;44750;52.040;7.472;2023-04-21T11:27:39;99732.75;;;16.89;100.00
58973;BME280;44750;52.040;7.472;2023-04-21T11:32:41;99773.50;;;17.36;100.00
58973;BME280;44750;52.040;7.472;2023-04-21T11:37:41;99723.81;;;17.39;100.00
58973;BME280;44750;52.040;7.472;2023-04-21T11:42:41;99709.09;;;17.40;100.00
58973;BME280;44750;52.040;7.472;2023-04-21T11:47:42;99719.25;;;17.33;100.00
58973;BME280;44750;52.040;7.472;2023-04-21T11:52:42;99729.91;;;17.41;100.00
58973;BME280;44750;52.040;7.472;2023-04-21T11:57:42;99692.72;;;17.59;100.00
58973;BME280;44750;52.040;7.472;2023-04-21T12:02:44;99711.00;;;17.65;100.00
58973;BME280;44750;52.040;7.472;2023-04-21T12:07:54;99719.84;;;17.85;100.00
58973;BME280;44750;52.040;7.472;2023-04-21T12:12:55;99702.19;;;17.81;100.00
58973;BME280;44750;52.040;7.472;2023-04-21T12:17:55;99698.47;;;18.01;100.00
58973;BME280;44750;52.040;7.472;2023-04-21T12:22:56;99706.81;;;18.25;100.00
58973;BME280;44750;52.040;7.472;2023-04-21T12:27:57;99673.28;;;18.29;100.00
58973;BME280;44750;52.040;7.472;2023-04-21T12:32:58;99669.63;;;17.98;100.00
58973;BME280;44750;52.040;7.472;2023-04-21T12:37:58;99702.69;;;18.52;100.00
58973;BME280;44750;52.040;7.472;2023-04-21T12:42:58;99661.50;;;18.29;100.00
58973;BME280;44750;52.040;7.472;2023-04-21T12:47:58;99656.84;;;18.11;100.00
58973;BME280;44750;52.040;7.472;2023-04-21T12:52:59;99630.44;;;17.98;100.00
58973;BME280;44750;52.040;7.472;2023-04-21T12:57:59;99672.59;;;18.15;100.00
58973;BME280;44750;52.040;7.472;2023-04-21T13:02:59;99675.56;;;18.63;100.00
58973;BME280;44750;52.040;7.472;2023-04-21T13:07:59;99658.13;;;18.76;100.00
58973;BME280;44750;52.040;7.472;2023-04-21T13:13:00;99679.25;;;18.87;100.00
58973;BME280;44750;52.040;7.472;2023-04-21T13:18:00;99651.63;;;18.88;100.00
58973;BME280;44750;52.040;7.472;2023-04-21T13:23:00;99624.28;;;18.82;100.00
58973;BME280;44750;52.040;7.472;2023-04-21T13:28:01;99620.09;;;18.79;100.00
58973;BME280;44750;52.040;7.472;2023-04-21T13:33:02;99596.66;;;18.95;100.00
58973;BME280;44750;52.040;7.472;2023-04-21T13:38:02;99593.38;;;19.05;100.00
58973;BME280;44750;52.040;7.472;2023-04-21T13:43:03;99619.50;;;19.43;100.00
58973;BME280;44750;52.040;7.472;2023-04-21T13:48:03;99566.78;;;19.41;100.00
58973;BME280;44750;52.040;7.472;2023-04-21T13:53:04;99541.00;;;19.42;100.00
58973;BME280;44750;52.040;7.472;2023-04-21T13:58:04;99434.63;;;19.20;100.00
58973;BME280;44750;52.040;7.472;2023-04-21T14:03:04;99365.06;;;19.27;100.00
58973;BME280;44750;52.040;7.472;2023-04-21T14:08:04;99293.25;;;19.30;100.00
58973;BME280;44750;52.040;7.472;2023-04-21T14:13:05;99176.28;;;19.24;100.00
58973;BME280;44750;52.040;7.472;2023-04-21T14:18:05;99140.78;;;19.34;98.41
58973;BME280;44750;52.040;7.472;2023-04-21T14:23:05;98972.28;;;19.30;94.90
58973;BME280;44750;52.040;7.472;2023-04-21T14:28:06;98937.72;;;19.51;92.45
58973;BME280;44750;52.040;7.472;2023-04-21T14:33:06;98893.53;;;19.52;92.96
58973;BME280;44750;52.040;7.472;2023-04-21T14:38:06;98738.25;;;19.51;90.85
58973;BME280;44750;52.040;7.472;2023-04-21T14:43:06;98715.53;;;19.61;90.81
58973;BME280;44750;52.040;7.472;2023-04-21T14:48:07;98667.50;;;19.59;91.42
58973;BME280;44750;52.040;7.472;2023-04-21T14:53:07;98616.50;;;19.68;90.51
58973;BME280;44750;52.040;7.472;2023-04-21T14:58:07;98591.09;;;19.83;90.15
58973;BME280;44750;52.040;7.472;2023-04-21T15:03:08;98825.53;;;19.54;99.70
58973;BME280;44750;52.040;7.472;2023-04-21T15:08:08;99181.28;;;19.27;100.00
58973;BME280;44750;52.040;7.472;2023-04-21T15:13:09;99371.81;;;19.07;100.00
58973;BME280;44750;52.040;7.472;2023-04-21T15:18:09;99447.03;;;18.87;100.00
58973;BME280;44750;52.040;7.472;2023-04-21T15:23:10;99539.81;;;18.91;100.00
58973;BME280;44750;52.040;7.472;2023-04-21T15:28:10;99575.91;;;18.87;100.00
58973;BME280;44750;52.040;7.472;2023-04-21T15:33:14;99585.75;;;18.65;100.00
58973;BME280;44750;52.040;7.472;2023-04-21T15:38:14;99632.34;;;18.65;100.00
58973;BME280;44750;52.040;7.472;2023-04-21T15:43:14;99666.78;;;18.61;100.00
58973;BME280;44750;52.040;7.472;2023-04-21T15:48:15;99673.00;;;18.49;100.00
58973;BME280;44750;52.040;7.472;2023-04-21T15:53:15;99687.47;;;18.57;100.00
58973;BME280;44750;52.040;7.472;2023-04-21T15:58:15;99687.59;;;18.62;100.00
58973;BME280;44750;52.040;7.472;2023-04-21T16:03:15;99661.28;;;18.61;100.00
58973;BME280;44750;52.040;7.472;2023-04-21T16:08:16;99617.06;;;18.57;100.00
58973;BME280;44750;52.040;7.472;2023-04-21T16:13:17;99606.72;;;18.71;100.00
58973;BME280;44750;52.040;7.472;2023-04-21T16:18:17;99556.94;;;18.74;100.00
58973;BME280;44750;52.040;7.472;2023-04-21T16:23:18;99448.22;;;18.68;100.00
58973;BME280;44750;52.040;7.472;2023-04-21T16:28:18;99442.88;;;18.73;100.00
58973;BME280;44750;52.040;7.472;2023-04-21T16:33:18;99409.97;;;18.73;100.00
58973;BME280;44750;52.040;7.472;2023-04-21T16:38:19;99384.00;;;18.64;100.00
58973;BME280;44750;52.040;7.472;2023-04-21T16:43:19;99390.66;;;18.68;100.00
58973;BME280;44750;52.040;7.472;2023-04-21T16:48:19;99396.28;;;18.73;100.00
58973;BME280;44750;52.040;7.472;2023-04-21T16:53:19;99344.56;;;18.65;100.00
58973;BME280;44750;52.040;7.472;2023-04-21T16:58:20;99346.06;;;18.72;100.00
58973;BME280;44750;52.040;7.472;2023-04-21T17:03:20;99305.94;;;18.90;100.00
58973;BME280;44750;52.040;7.472;2023-04-21T17:08:20;99295.50;;;19.04;100.00
58973;BME280;44750;52.040;7.472;2023-04-21T17:13:20;99239.03;;;18.91;100.00
58973;BME280;44750;52.040;7.472;2023-04-21T17:18:21;99249.06;;;18.74;100.00
58973;BME280;44750;52.040;7.472;2023-04-21T17:23:21;99274.94;;;18.66;100.00
58973;BME280;44750;52.040;7.472;2023-04-21T17:28:27;99262.50;;;18.34;100.00
58973;BME280;44750;52.040;7.472;2023-04-21T17:33:30;99303.34;;;18.36;100.00
58973;BME280;44750;52.040;7.472;2023-04-21T17:38:34;99292.28;;;18.31;100.00
58973;BME280;44750;52.040;7.472;2023-04-21T17:43:34;99260.72;;;18.28;100.00
58973;BME280;44750;52.040;7.472;2023-04-21T17:48:34;99257.28;;;18.21;100.00
58973;BME280;44750;52.040;7.472;2023-04-21T17:53:35;99262.28;;;18.12;100.00
58973;BME280;44750;52.040;7.472;2023-04-21T17:58:35;99217.13;;;17.79;100.00
58973;BME280;44750;52.040;7.472;2023-04-21T18:03:35;99158.34;;;17.70;100.00
58973;BME280;44750;52.040;7.472;2023-04-21T18:08:36;99140.59;;;17.72;100.00
58973;BME280;44750;52.040;7.472;2023-04-21T18:13:37;99154.31;;;17.61;100.00
58973;BME280;44750;52.040;7.472;2023-04-21T18:18:37;99215.31;;;17.49;100.00
58973;BME280;44750;52.040;7.472;2023-04-21T18:23:37;99315.88;;;17.05;100.00
58973;BME280;44750;52.040;7.472;2023-04-21T18:28:37;99600.16;;;16.48;100.00
58973;BME280;44750;52.040;7.472;2023-04-21T18:33:38;99717.50;;;16.09;100.00
58973;BME280;44750;52.040;7.472;2023-04-21T18:38:38;99691.53;;;15.86;100.00
58973;BME280;44750;52.040;7.472;2023-04-21T18:43:39;99677.19;;;16.11;100.00
58973;BME280;44750;52.040;7.472;2023-04-21T18:48:39;99645.34;;;16.44;100.00
58973;BME280;44750;52.040;7.472;2023-04-21T18:53:39;99598.69;;;16.45;100.00
58973;BME280;44750;52.040;7.472;2023-04-21T18:58:39;99589.78;;;16.57;100.00
58973;BME280;44750;52.040;7.472;2023-04-21T19:03:40;99670.91;;;16.04;100.00
58973;BME280;44750;52.040;7.472;2023-04-21T19:08:40;99702.44;;;15.80;100.00
58973;BME280;44750;52.040;7.472;2023-04-21T19:13:40;99726.13;;;15.72;100.00
58973;BME280;44750;52.040;7.472;2023-04-21T19:18:41;99698.47;;;15.55;100.00
58973;BME280;44750;52.040;7.472;2023-04-21T19:23:41;99691.53;;;15.60;100.00
58973;BME280;44750;52.040;7.472;2023-04-21T19:28:42;99655.88;;;15.48;100.00
58973;BME280;44750;52.040;7.472;2023-04-21T19:33:42;99673.50;;;15.32;100.00
58973;BME280;44750;52.040;7.472;2023-04-21T19:38:42;99672.47;;;15.33;100.00
58973;BME280;44750;52.040;7.472;2023-04-21T19:43:42;99665.09;;;15.47;100.00
58973;BME280;44750;52.040;7.472;2023-04-21T19:48:43;99644.78;;;15.36;100.00
58973;BME280;44750;52.040;7.472;2023-04-21T19:53:43;99698.25;;;15.30;100.00
58973;BME280;44750;52.040;7.472;2023-04-21T19:58:44;99698.03;;;15.32;100.00
58973;BME280;44750;52.040;7.472;2023-04-21T20:03:47;99701.81;;;15.44;100.00
58973;BME280;44750;52.040;7.472;2023-04-21T20:08:47;99691.56;;;15.53;100.00
58973;BME280;44750;52.040;7.472;2023-04-21T20:13:47;99740.22;;;15.36;100.00
58973;BME280;44750;52.040;7.472;2023-04-21T20:18:48;99752.38;;;15.33;100.00
58973;BME280;44750;52.040;7.472;2023-04-21T20:23:48;99747.75;;;15.34;100.00
58973;BME280;44750;52.040;7.472;2023-04-21T20:28:48;99724.84;;;15.08;100.00
58973;BME280;44750;52.040;7.472;2023-04-21T20:33:49;99711.03;;;15.16;100.00
58973;BME280;44750;52.040;7.472;2023-04-21T20:38:49;99723.59;;;15.11;100.00
58973;BME280;44750;52.040;7.472;2023-04-21T20:43:49;99723.16;;;15.07;100.00
58973;BME280;44750;52.040;7.472;2023-04-21T20:48:50;99734.28;;;15.05;100.00
58973;BME280;44750;52.040;7.472;2023-04-21T20:53:51;99650.84;;;14.98;100.00
58973;BME280;44750;52.040;7.472;2023-04-21T20:58:51;99608.09;;;14.92;100.00
58973;BME280;44750;52.040;7.472;2023-04-21T21:03:52;99617.50;;;14.82;100.00
58973;BME280;44750;52.040;7.472;2023-04-21T21:08:52;99650.72;;;14.51;100.00
58973;BME280;44750;52.040;7.472;2023-04-21T21:13:52;99655.94;;;14.52;100.00
58973;BME280;44750;52.040;7.472;2023-04-21T21:18:53;99673.56;;;14.57;100.00
58973;BME280;44750;52.040;7.472;2023-04-21T21:23:53;99717.97;;;14.50;100.00
58973;BME280;44750;52.040;7.472;2023-04-21T21:28:53;99756.59;;;14.32;100.00
58973;BME280;44750;52.040;7.472;2023-04-21T21:33:53;99721.03;;;13.99;100.00
58973;BME280;44750;52.040;7.472;2023-04-21T21:38:54;99650.41;;;13.77;100.00
58973;BME280;44750;52.040;7.472;2023-04-21T21:43:54;99590.34;;;13.79;100.00
58973;BME280;44750;52.040;7.472;2023-04-21T21:48:54;99570.63;;;13.70;100.00
58973;BME280;44750;52.040;7.472;2023-04-21T21:53:54;99540.03;;;13.54;100.00
58973;BME280;44750;52.040;7.472;2023-04-21T21:58:55;99478.06;;;13.43;100.00
58973;BME280;44750;52.040;7.472;2023-04-21T22:03:55;99439.78;;;13.38;100.00
58973;BME280;44750;52.040;7.472;2023-04-21T22:08:55;99402.06;;;13.21;97.15
58973;BME280;44750;52.040;7.472;2023-04-21T22:13:56;99428.78;;;13.53;94.26
58973;BME280;44750;52.040;7.472;2023-04-21T22:18:56;99440.72;;;13.59;93.33
58973;BME280;44750;52.040;7.472;2023-04-21T22:23:56;99437.34;;;13.57;91.65
58973;BME280;44750;52.040;7.472;2023-04-21T22:28:57;99426.91;;;13.60;91.29
58973;BME280;44750;52.040;7.472;2023-04-21T22:33:57;99456.22;;;13.65;89.88
58973;BME280;44750;52.040;7.472;2023-04-21T22:38:57;99448.38;;;13.42;89.75
58973;BME280;44750;52.040;7.472;2023-04-21T22:43:58;99460.19;;;13.27;84.99
58973;BME280;44750;52.040;7.472;2023-04-21T22:48:59;99465.94;;;13.39;79.38
58973;BME280;44750;52.040;7.472;2023-04-21T22:54:00;99445.44;;;13.36;77.09
58973;BME280;44750;52.040;7.472;2023-04-21T22:59:00;99455.00;;;13.32;74.37
58973;BME280;44750;52.040;7.472;2023-04-21T23:04:00;99431.13;;;13.21;72.96
58973;BME280;44750;52.040;7.472;2023-04-21T23:09:00;99430.84;;;13.09;71.28
58973;BME280;44750;52.040;7.472;2023-04-21T23:14:01;99436.06;;;13.04;69.24
58973;BME280;44750;52.040;7.472;2023-04-21T23:19:01;99432.38;;;12.83;66.77
58973;BME280;44750;52.040;7.472;2023-04-21T23:24:01;99451.25;;;12.92;65.50
58973;BME280;44750;52.040;7.472;2023-04-21T23:29:01;99457.22;;;12.80;62.86
58973;BME280;44750;52.040;7.472;2023-04-21T23:34:02;99445.19;;;12.61;58.81
58973;BME280;44750;52.040;7.472;2023-04-21T23:39:02;99424.16;;;12.42;55.47
58973;BME280;44750;52.040;7.472;2023-04-21T23:44:02;99420.94;;;12.31;50.81
58973;BME280;44750;52.040;7.472;2023-04-21T23:49:02;99429.13;;;12.38;45.47
58973;BME280;44750;52.040;7.472;2023-04-21T23:54:03;99422.88;;;12.37;41.65
58973;BME280;44750;52.040;7.472;2023-04-21T23:59:03;99416.09;;;12.27;39.59
